createdAt,value
2022-10-20T00:01:43.103Z,46.08
2022-10-20T00:04:48.081Z,44.59
2022-10-20T00:07:52.667Z,44.52
2022-10-20T00:10:58.046Z,42.88
2022-10-20T00:14:03.681Z,41.88
2022-10-20T00:17:07.693Z,41.90
2022-10-20T00:20:12.476Z,41.57
2022-10-20T00:23:17.207Z,39.62
2022-10-20T00:26:26.422Z,39.93
2022-10-20T00:29:31.267Z,39.63
2022-10-20T00:32:36.130Z,38.64
2022-10-20T00:35:40.922Z,37.83
2022-10-20T00:38:45.378Z,37.09
2022-10-20T00:41:49.784Z,37.32
2022-10-20T00:44:58.269Z,37.71
2022-10-20T00:48:09.720Z,35.51
2022-10-20T00:51:16.870Z,35.38
2022-10-20T00:54:27.131Z,36.11
2022-10-20T00:57:33.452Z,34.98
2022-10-20T01:00:41.303Z,34.74
2022-10-20T01:03:49.405Z,35.54
2022-10-20T01:06:53.688Z,34.88
2022-10-20T01:09:58.226Z,34.25
2022-10-20T01:13:24.445Z,33.22
2022-10-20T01:16:37.289Z,33.00
2022-10-20T01:20:24.547Z,29.36
2022-10-20T01:23:53.529Z,32.68
2022-10-20T01:27:28.127Z,31.94
2022-10-20T01:30:36.401Z,32.41
2022-10-20T01:33:49.172Z,31.06
2022-10-20T01:37:01.536Z,32.35
2022-10-20T01:40:29.486Z,29.67
2022-10-20T01:43:39.112Z,32.14
2022-10-20T01:46:44.909Z,31.47
2022-10-20T01:49:50.655Z,31.52
2022-10-20T01:53:01.062Z,30.20
2022-10-20T01:56:07.687Z,32.46
2022-10-20T01:59:22.546Z,31.64
2022-10-20T02:02:48.557Z,32.48
2022-10-20T02:06:17.102Z,31.99
2022-10-20T02:09:42.068Z,31.72
2022-10-20T02:12:51.935Z,31.97
2022-10-20T02:16:39.665Z,32.54
2022-10-20T02:19:46.687Z,33.18
2022-10-20T02:22:51.731Z,32.57
2022-10-20T02:25:57.214Z,33.02
2022-10-20T02:29:33.355Z,32.35
2022-10-20T02:32:40.140Z,33.65
2022-10-20T02:35:54.925Z,32.74
2022-10-20T02:38:59.196Z,33.86
2022-10-20T02:42:03.388Z,33.73
2022-10-20T02:45:09.215Z,33.60
2022-10-20T02:48:16.507Z,33.34
2022-10-20T02:51:21.867Z,33.11
2022-10-20T02:54:26.037Z,32.64
2022-10-20T02:57:30.634Z,32.68
2022-10-20T03:00:35.114Z,31.48
2022-10-20T03:03:39.611Z,31.98
2022-10-20T03:06:44.822Z,31.78
2022-10-20T03:09:49.919Z,30.17
2022-10-20T03:12:54.353Z,31.83
2022-10-20T03:15:58.787Z,31.10
2022-10-20T03:19:06.301Z,30.84
2022-10-20T03:22:12.010Z,31.24
2022-10-20T03:25:16.895Z,30.92
2022-10-20T03:28:21.246Z,31.11
2022-10-20T03:31:26.054Z,31.48
2022-10-20T03:34:30.399Z,31.61
2022-10-20T03:37:34.938Z,31.33
2022-10-20T03:40:39.180Z,30.75
2022-10-20T03:43:43.807Z,30.48
2022-10-20T03:46:48.285Z,30.66
2022-10-20T03:49:52.788Z,30.34
2022-10-20T03:52:56.983Z,30.80
2022-10-20T03:56:06.002Z,30.92
2022-10-20T03:59:12.486Z,30.60
2022-10-20T04:02:29.760Z,31.22
2022-10-20T04:05:34.020Z,30.82
2022-10-20T04:08:38.912Z,30.99
2022-10-20T04:11:43.417Z,30.76
2022-10-20T04:14:51.681Z,31.15
2022-10-20T04:17:56.344Z,31.00
2022-10-20T04:21:01.042Z,31.27
2022-10-20T04:24:06.564Z,31.10
2022-10-20T04:27:11.036Z,30.85
2022-10-20T04:30:18.300Z,30.88
2022-10-20T04:33:22.771Z,30.61
2022-10-20T04:36:27.016Z,30.37
2022-10-20T04:39:33.941Z,30.36
2022-10-20T04:42:38.515Z,30.56
2022-10-20T04:45:44.645Z,30.75
2022-10-20T04:48:50.274Z,30.32
2022-10-20T04:51:58.628Z,30.63
2022-10-20T04:55:05.167Z,30.32
2022-10-20T04:58:09.812Z,30.17
2022-10-20T05:01:14.107Z,30.36
2022-10-20T05:04:22.287Z,29.80
2022-10-20T05:07:26.839Z,30.00
2022-10-20T05:10:34.406Z,29.96
2022-10-20T05:13:41.392Z,30.01
2022-10-20T05:16:45.646Z,29.76
2022-10-20T05:19:50.442Z,29.88
2022-10-20T05:22:54.727Z,28.77
2022-10-20T05:25:59.387Z,30.05
2022-10-20T05:29:06.761Z,29.78
2022-10-20T05:32:12.813Z,30.12
2022-10-20T05:35:17.366Z,30.10
2022-10-20T05:38:21.655Z,30.28
2022-10-20T05:41:34.748Z,29.85
2022-10-20T05:44:42.472Z,29.61
2022-10-20T05:47:46.728Z,29.77
2022-10-20T05:50:51.358Z,29.34
2022-10-20T05:53:57.768Z,29.08
2022-10-20T05:57:02.394Z,30.09
2022-10-20T06:00:07.547Z,30.14
2022-10-20T06:03:17.604Z,30.08
2022-10-20T06:06:26.530Z,30.06
2022-10-20T06:09:30.845Z,30.43
2022-10-20T06:12:37.439Z,30.40
2022-10-20T06:15:42.071Z,30.37
2022-10-20T06:18:46.527Z,29.96
2022-10-20T06:21:51.144Z,30.42
2022-10-20T06:24:55.476Z,30.81
2022-10-20T06:27:59.669Z,30.78
2022-10-20T06:31:16.454Z,31.00
2022-10-20T06:34:23.580Z,31.06
2022-10-20T06:37:30.548Z,30.93
2022-10-20T06:40:36.115Z,31.31
2022-10-20T06:43:40.765Z,31.07
2022-10-20T06:46:46.009Z,31.73
2022-10-20T06:49:50.898Z,31.74
2022-10-20T06:52:55.278Z,32.10
2022-10-20T06:56:08.215Z,31.76
2022-10-20T06:59:12.546Z,31.67
2022-10-20T07:02:17.237Z,32.43
2022-10-20T07:05:23.004Z,32.22
2022-10-20T07:08:29.416Z,32.42
2022-10-20T07:11:34.115Z,32.90
2022-10-20T07:14:38.421Z,32.52
2022-10-20T07:17:42.832Z,32.76
2022-10-20T07:20:47.060Z,33.20
2022-10-20T07:23:52.669Z,33.04
2022-10-20T07:27:00.388Z,33.25
2022-10-20T07:30:05.714Z,33.52
2022-10-20T07:33:10.903Z,34.28
2022-10-20T07:36:21.953Z,34.16
2022-10-20T07:39:26.835Z,34.40
2022-10-20T07:42:31.427Z,34.58
2022-10-20T07:45:36.864Z,35.04
2022-10-20T07:48:42.914Z,35.41
2022-10-20T07:51:48.714Z,35.75
2022-10-20T07:55:01.596Z,35.56
2022-10-20T07:58:18.247Z,36.04
2022-10-20T08:01:22.628Z,36.04
2022-10-20T08:04:27.173Z,36.28
2022-10-20T08:07:31.763Z,36.78
2022-10-20T08:10:36.417Z,36.75
2022-10-20T08:13:42.371Z,37.15
2022-10-20T08:16:52.530Z,37.25
2022-10-20T08:23:15.380Z,37.94
2022-10-20T08:26:23.441Z,38.39
2022-10-20T08:29:29.022Z,38.74
2022-10-20T08:32:34.130Z,38.92
2022-10-20T08:35:38.616Z,39.08
2022-10-20T08:38:44.627Z,39.10
2022-10-20T08:42:08.910Z,39.23
2022-10-20T08:45:38.493Z,39.51
2022-10-20T08:48:44.581Z,39.26
2022-10-20T08:51:49.557Z,39.20
2022-10-20T08:54:58.851Z,39.04
2022-10-20T08:58:29.890Z,39.84
2022-10-20T09:01:37.171Z,39.54
2022-10-20T09:05:02.871Z,39.49
2022-10-20T09:08:10.894Z,39.44
2022-10-20T09:11:24.066Z,40.07
2022-10-20T09:14:31.912Z,40.23
2022-10-20T09:17:37.198Z,40.35
2022-10-20T09:20:53.363Z,41.13
2022-10-20T09:24:02.148Z,40.27
2022-10-20T09:27:25.051Z,40.81
2022-10-20T09:30:35.383Z,40.37
2022-10-20T09:33:39.731Z,40.46
2022-10-20T09:36:44.622Z,40.76
2022-10-20T09:39:55.559Z,41.33
2022-10-20T09:43:03.334Z,41.40
2022-10-20T09:46:11.332Z,42.26
2022-10-20T09:49:38.157Z,43.44
2022-10-20T09:52:49.879Z,42.07
2022-10-20T09:55:54.703Z,41.74
2022-10-20T09:59:02.261Z,42.37
2022-10-20T10:02:27.596Z,43.36
2022-10-20T10:05:34.595Z,43.49
2022-10-20T10:08:47.568Z,43.70
2022-10-20T10:12:03.560Z,43.61
2022-10-20T10:15:25.905Z,45.53
2022-10-20T10:18:30.641Z,44.77
2022-10-20T10:21:52.946Z,47.62
2022-10-20T10:24:58.218Z,46.34
2022-10-20T10:28:20.853Z,47.04
2022-10-20T10:31:27.044Z,46.39
2022-10-20T10:35:05.277Z,46.49
2022-10-20T10:38:13.992Z,46.25
2022-10-20T10:41:29.947Z,47.52
2022-10-20T10:44:34.291Z,50.28
2022-10-20T10:48:02.795Z,48.36
2022-10-20T10:51:19.819Z,48.73
2022-10-20T10:55:05.031Z,49.46
2022-10-20T10:58:30.247Z,50.30
2022-10-20T11:01:40.589Z,49.08
2022-10-20T11:08:47.886Z,49.32
2022-10-20T11:11:55.589Z,48.22
2022-10-20T11:15:26.397Z,48.99
2022-10-20T11:18:33.683Z,48.83
2022-10-20T11:21:56.826Z,50.49
2022-10-20T11:25:01.656Z,49.62
2022-10-20T11:28:26.853Z,49.58
2022-10-20T11:31:39.681Z,48.60
2022-10-20T11:35:24.226Z,49.49
2022-10-20T11:38:56.005Z,50.48
2022-10-20T11:42:14.213Z,50.84
2022-10-20T11:45:43.680Z,51.66
2022-10-20T11:48:53.434Z,51.07
2022-10-20T11:52:22.902Z,53.76
2022-10-20T11:55:44.730Z,50.96
2022-10-20T11:59:36.719Z,51.20
2022-10-20T12:03:04.878Z,52.50
2022-10-20T12:06:35.572Z,51.32
2022-10-20T12:09:58.232Z,50.33
2022-10-20T12:13:15.231Z,50.20
2022-10-20T12:16:54.321Z,51.97
2022-10-20T12:20:23.203Z,54.19
2022-10-20T12:23:53.950Z,54.36
2022-10-20T12:27:04.127Z,53.60
2022-10-20T12:30:38.718Z,53.54
2022-10-20T12:33:55.550Z,53.80
2022-10-20T12:37:19.398Z,53.15
2022-10-20T12:41:23.288Z,53.38
2022-10-20T12:44:30.755Z,53.27
2022-10-20T12:47:38.567Z,53.59
2022-10-20T12:50:50.263Z,53.71
2022-10-20T12:54:07.788Z,55.43
2022-10-20T12:57:43.936Z,56.19
2022-10-20T13:00:48.387Z,53.42
2022-10-20T13:03:53.722Z,53.82
2022-10-20T13:06:58.137Z,52.96
2022-10-20T13:10:04.326Z,52.85
2022-10-20T13:13:09.554Z,53.57
2022-10-20T13:16:21.142Z,54.09
2022-10-20T13:19:34.864Z,55.54
2022-10-20T13:26:25.391Z,55.44
2022-10-20T13:29:35.398Z,55.55
2022-10-20T13:33:33.397Z,56.00
2022-10-20T13:37:00.596Z,56.87
2022-10-20T13:40:11.758Z,57.94
2022-10-20T13:43:19.203Z,57.51
2022-10-20T13:46:46.957Z,56.28
2022-10-20T13:50:06.779Z,57.05
2022-10-20T13:53:23.093Z,57.17
2022-10-20T13:56:34.862Z,59.52
2022-10-20T13:59:41.871Z,57.99
2022-10-20T14:03:03.013Z,59.82
2022-10-20T14:06:07.171Z,58.75
2022-10-20T14:09:27.064Z,57.94
2022-10-20T14:12:33.358Z,58.08
2022-10-20T14:15:39.039Z,59.87
2022-10-20T14:18:43.444Z,59.60
2022-10-20T14:21:55.202Z,58.42
2022-10-20T14:25:01.042Z,59.55
2022-10-20T14:28:08.078Z,59.82
2022-10-20T14:31:14.960Z,59.08
2022-10-20T14:34:31.880Z,60.02
2022-10-20T14:37:42.956Z,58.75
2022-10-20T14:40:54.169Z,59.41
2022-10-20T14:44:12.190Z,60.47
2022-10-20T14:47:21.947Z,59.76
2022-10-20T14:50:28.899Z,60.62
2022-10-20T14:53:34.859Z,60.91
2022-10-20T14:56:44.206Z,64.27
2022-10-20T15:00:13.900Z,62.45
2022-10-20T15:03:18.894Z,60.81
2022-10-20T15:06:23.427Z,60.89
2022-10-20T15:09:33.937Z,60.88
2022-10-20T15:12:38.512Z,59.96
2022-10-20T15:15:42.995Z,59.81
2022-10-20T15:18:47.386Z,60.08
2022-10-20T15:22:09.186Z,61.38
2022-10-20T15:25:13.974Z,62.60
2022-10-20T15:28:27.368Z,63.89
2022-10-20T15:31:32.335Z,63.17
2022-10-20T15:34:36.682Z,62.75
2022-10-20T15:37:40.975Z,61.46
2022-10-20T15:40:45.523Z,60.41
2022-10-20T15:43:50.762Z,63.41
2022-10-20T15:46:54.968Z,63.26
2022-10-20T15:49:59.353Z,62.87
2022-10-20T15:53:03.710Z,63.70
2022-10-20T15:56:09.854Z,63.99
2022-10-20T15:59:14.379Z,64.39
2022-10-20T16:02:18.808Z,63.87
2022-10-20T16:05:25.245Z,63.82
2022-10-20T16:08:30.106Z,64.65
2022-10-20T16:11:34.643Z,65.25
2022-10-20T16:14:40.737Z,65.38
2022-10-20T16:17:45.833Z,66.80
2022-10-20T16:20:50.423Z,64.67
2022-10-20T16:23:54.979Z,64.09
2022-10-20T16:26:59.375Z,64.13
2022-10-20T16:30:05.669Z,63.58
2022-10-20T16:33:10.332Z,63.46
2022-10-20T16:36:17.528Z,63.92
2022-10-20T16:39:21.855Z,63.08
2022-10-20T16:42:27.302Z,62.63
2022-10-20T16:45:32.658Z,64.39
2022-10-20T16:48:41.500Z,63.77
2022-10-20T16:51:47.408Z,65.22
2022-10-20T16:54:51.691Z,65.83
2022-10-20T16:57:57.252Z,66.45
2022-10-20T17:01:09.637Z,66.92
2022-10-20T17:04:15.350Z,65.80
2022-10-20T17:07:20.140Z,66.62
2022-10-20T17:10:24.972Z,66.53
2022-10-20T17:13:30.582Z,66.71
2022-10-20T17:16:38.361Z,65.27
2022-10-20T17:19:44.218Z,64.41
2022-10-20T17:22:48.959Z,65.58
2022-10-20T17:26:04.054Z,64.97
2022-10-20T17:29:10.476Z,65.92
2022-10-20T17:32:17.444Z,65.49
2022-10-20T17:35:23.082Z,65.53
2022-10-20T17:38:29.063Z,65.44
2022-10-20T17:41:33.334Z,68.64
2022-10-20T17:44:37.777Z,68.03
2022-10-20T17:47:42.058Z,68.31
2022-10-20T17:50:46.797Z,67.80
2022-10-20T17:53:53.571Z,66.02
2022-10-20T17:56:58.388Z,66.86
2022-10-20T18:00:05.615Z,67.11
2022-10-20T18:03:15.558Z,68.05
2022-10-20T18:06:22.156Z,69.57
2022-10-20T18:09:26.635Z,69.01
2022-10-20T18:12:32.444Z,67.92
2022-10-20T18:15:42.672Z,69.28
2022-10-20T18:18:47.415Z,67.32
2022-10-20T18:21:51.959Z,67.88
2022-10-20T18:24:56.205Z,68.62
2022-10-20T18:28:00.755Z,68.18
2022-10-20T18:31:10.852Z,68.59
2022-10-20T18:34:18.154Z,67.12
2022-10-20T18:37:22.637Z,66.87
2022-10-20T18:40:26.876Z,66.62
2022-10-20T18:43:31.197Z,65.55
2022-10-20T18:46:35.928Z,64.44
2022-10-20T18:49:40.224Z,65.69
2022-10-20T18:52:44.780Z,67.36
2022-10-20T18:56:04.816Z,66.70
2022-10-20T18:59:11.453Z,66.78
2022-10-20T19:02:15.771Z,65.62
2022-10-20T19:05:20.607Z,67.38
2022-10-20T19:08:26.587Z,68.71
2022-10-20T19:11:33.075Z,69.72
2022-10-20T19:14:37.478Z,69.21
2022-10-20T19:17:41.816Z,67.69
2022-10-20T19:20:54.159Z,67.85
2022-10-20T19:24:02.263Z,67.11
2022-10-20T19:27:25.683Z,66.03
2022-10-20T19:30:36.233Z,66.51
2022-10-20T19:33:40.586Z,65.53
2022-10-20T19:36:48.658Z,66.62
2022-10-20T19:39:53.327Z,67.36
2022-10-20T19:42:57.605Z,67.52
2022-10-20T19:46:02.171Z,66.33
2022-10-20T19:52:18.196Z,66.88
2022-10-20T19:55:22.758Z,66.24
2022-10-20T19:58:27.484Z,66.25
2022-10-20T20:01:32.186Z,65.73
2022-10-20T20:04:36.845Z,65.92
2022-10-20T20:07:41.401Z,64.83
2022-10-20T20:10:53.906Z,63.73
2022-10-20T20:14:01.687Z,65.01
2022-10-20T20:17:07.427Z,63.69
2022-10-20T20:20:14.790Z,64.20
2022-10-20T20:23:26.047Z,63.75
2022-10-20T20:26:39.490Z,62.93
2022-10-20T20:29:44.033Z,62.81
2022-10-20T20:32:50.750Z,65.03
2022-10-20T20:36:01.006Z,65.64
2022-10-20T20:39:05.629Z,65.54
2022-10-20T20:42:10.201Z,65.51
2022-10-20T20:45:15.819Z,66.10
2022-10-20T20:48:20.457Z,67.53
2022-10-20T20:51:29.944Z,66.54
2022-10-20T20:54:34.465Z,65.30
2022-10-20T20:57:39.454Z,65.88
2022-10-20T21:00:43.929Z,65.41
2022-10-20T21:03:48.737Z,64.78
2022-10-20T21:07:02.529Z,65.45
2022-10-20T21:10:07.787Z,64.75
2022-10-20T21:13:12.493Z,63.71
2022-10-20T21:16:22.491Z,63.52
2022-10-20T21:19:27.179Z,64.26
2022-10-20T21:22:31.684Z,64.46
2022-10-20T21:25:36.107Z,64.42
2022-10-20T21:28:40.436Z,64.12
2022-10-20T21:31:44.625Z,65.27
2022-10-20T21:34:48.816Z,64.98
2022-10-20T21:37:53.091Z,64.19
2022-10-20T21:41:03.674Z,64.94
2022-10-20T21:44:09.179Z,60.49
2022-10-20T21:47:13.264Z,60.12
2022-10-20T21:50:17.905Z,58.97
2022-10-20T21:53:22.415Z,55.08
2022-10-20T21:56:27.016Z,54.54
2022-10-20T21:59:32.098Z,57.41
2022-10-20T22:02:37.193Z,57.29
2022-10-20T22:05:41.699Z,57.51
2022-10-20T22:08:50.668Z,58.52
2022-10-20T22:11:57.642Z,58.45
2022-10-20T22:15:01.933Z,58.39
2022-10-20T22:18:08.180Z,58.48
2022-10-20T22:21:15.392Z,57.89
2022-10-20T22:24:20.531Z,58.51
2022-10-20T22:27:31.644Z,57.91
2022-10-20T22:30:46.336Z,57.90
2022-10-20T22:33:58.236Z,57.48
2022-10-20T22:37:02.742Z,57.94
2022-10-20T22:40:07.757Z,58.20
2022-10-20T22:43:12.377Z,55.28
2022-10-20T22:46:17.135Z,54.48
2022-10-20T22:49:21.611Z,52.40
2022-10-20T22:52:26.003Z,50.31
2022-10-20T22:55:30.342Z,50.27
2022-10-20T22:58:35.016Z,49.89
2022-10-20T23:01:39.883Z,49.60
2022-10-20T23:04:44.008Z,48.89
2022-10-20T23:07:48.441Z,48.52
2022-10-20T23:10:59.939Z,47.08
2022-10-20T23:14:04.044Z,48.13
2022-10-20T23:17:08.551Z,48.25
2022-10-20T23:20:13.067Z,48.63
2022-10-20T23:23:17.264Z,49.01
2022-10-20T23:26:22.069Z,48.42
2022-10-20T23:29:26.644Z,47.47
2022-10-20T23:32:31.036Z,47.04
2022-10-20T23:35:39.557Z,46.46
2022-10-20T23:38:44.717Z,46.13
2022-10-20T23:41:49.022Z,45.19
2022-10-20T23:44:53.036Z,45.34
2022-10-20T23:47:57.684Z,45.41
2022-10-20T23:51:02.472Z,44.98
2022-10-20T23:54:06.797Z,44.41
2022-10-20T23:57:10.965Z,44.09
